createdAt,value
2022-08-03T00:01:45.769Z,23.16
2022-08-03T00:04:13.630Z,23.12
2022-08-03T00:06:41.504Z,23.11
2022-08-03T00:09:09.389Z,23.10
2022-08-03T00:11:37.437Z,23.09
2022-08-03T00:14:05.531Z,23.06
2022-08-03T00:16:33.581Z,23.02
2022-08-03T00:19:03.420Z,23.01
2022-08-03T00:21:31.151Z,23.00
2022-08-03T00:23:58.941Z,22.97
2022-08-03T00:26:26.639Z,22.94
2022-08-03T00:28:54.467Z,22.94
2022-08-03T00:34:10.486Z,22.91
2022-08-03T00:36:40.317Z,22.90
2022-08-03T00:39:08.014Z,22.89
2022-08-03T00:41:35.727Z,22.89
2022-08-03T00:44:03.493Z,22.85
2022-08-03T00:46:31.226Z,22.82
2022-08-03T00:48:59.047Z,22.81
2022-08-03T00:51:28.275Z,22.78
2022-08-03T00:53:56.033Z,22.78
2022-08-03T00:56:23.877Z,22.74
2022-08-03T00:58:52.070Z,22.74
2022-08-03T01:01:19.900Z,22.72
2022-08-03T01:03:47.670Z,22.67
2022-08-03T01:06:19.323Z,22.66
2022-08-03T01:08:53.995Z,22.58
2022-08-03T01:11:30.173Z,22.63
2022-08-03T01:14:19.270Z,22.64
2022-08-03T01:16:53.571Z,22.58
2022-08-03T01:19:33.409Z,22.58
2022-08-03T01:22:15.942Z,22.52
2022-08-03T01:24:52.294Z,22.48
2022-08-03T01:27:23.152Z,22.47
2022-08-03T01:30:00.837Z,22.44
2022-08-03T01:32:58.899Z,22.42
2022-08-03T01:35:27.932Z,22.32
2022-08-03T01:37:59.095Z,22.34
2022-08-03T01:40:28.664Z,22.37
2022-08-03T01:42:58.879Z,22.30
2022-08-03T01:45:28.900Z,22.36
2022-08-03T01:48:02.199Z,22.34
2022-08-03T01:50:31.290Z,22.35
2022-08-03T01:52:59.740Z,22.36
2022-08-03T01:55:28.646Z,22.36
2022-08-03T01:58:05.411Z,22.34
2022-08-03T02:00:37.303Z,22.33
2022-08-03T02:03:06.411Z,22.32
2022-08-03T02:05:35.085Z,22.29
2022-08-03T02:08:04.120Z,22.28
2022-08-03T02:10:35.276Z,22.27
2022-08-03T02:13:05.213Z,22.23
2022-08-03T02:15:33.212Z,22.23
2022-08-03T02:18:03.203Z,22.20
2022-08-03T02:20:33.135Z,22.18
2022-08-03T02:23:00.835Z,22.16
2022-08-03T02:25:28.872Z,22.14
2022-08-03T02:27:59.342Z,22.06
2022-08-03T02:30:31.245Z,22.10
2022-08-03T02:33:00.064Z,22.08
2022-08-03T02:35:30.684Z,22.06
2022-08-03T02:38:04.571Z,22.01
2022-08-03T02:40:33.254Z,22.05
2022-08-03T02:43:04.952Z,22.04
2022-08-03T02:45:34.107Z,22.06
2022-08-03T02:48:04.793Z,22.05
2022-08-03T02:50:35.147Z,22.00
2022-08-03T02:53:03.237Z,22.02
2022-08-03T02:55:32.008Z,22.00
2022-08-03T02:58:01.321Z,21.97
2022-08-03T03:00:29.985Z,21.94
2022-08-03T03:02:59.589Z,21.92
2022-08-03T03:05:55.713Z,21.93
2022-08-03T03:08:25.761Z,21.92
2022-08-03T03:10:55.629Z,21.90
2022-08-03T03:13:24.404Z,21.87
2022-08-03T03:15:53.603Z,21.86
2022-08-03T03:18:23.097Z,21.84
2022-08-03T03:20:52.919Z,21.89
2022-08-03T03:23:23.117Z,21.87
2022-08-03T03:25:51.215Z,21.87
2022-08-03T03:28:19.048Z,21.85
2022-08-03T03:30:53.084Z,21.86
2022-08-03T03:33:21.171Z,21.84
2022-08-03T03:35:48.982Z,21.85
2022-08-03T03:38:16.782Z,21.82
2022-08-03T03:40:46.115Z,21.85
2022-08-03T03:43:14.193Z,21.81
2022-08-03T03:45:43.057Z,21.82
2022-08-03T03:48:11.119Z,21.80
2022-08-03T03:50:40.905Z,21.81
2022-08-03T03:53:10.819Z,21.79
2022-08-03T03:56:02.136Z,21.79
2022-08-03T03:58:27.705Z,21.78
2022-08-03T04:00:55.495Z,21.76
2022-08-03T04:03:23.359Z,21.77
2022-08-03T04:06:08.705Z,21.76
2022-08-03T04:08:53.734Z,21.75
2022-08-03T04:11:30.086Z,21.74
2022-08-03T04:14:04.786Z,21.73
2022-08-03T04:16:34.952Z,21.73
2022-08-03T04:19:07.395Z,21.72
2022-08-03T04:21:37.006Z,21.69
2022-08-03T04:24:07.549Z,21.67
2022-08-03T04:26:38.565Z,21.57
2022-08-03T04:29:08.263Z,21.63
2022-08-03T04:31:36.615Z,21.61
2022-08-03T04:34:04.493Z,21.49
2022-08-03T04:36:34.168Z,21.59
2022-08-03T04:39:04.083Z,21.60
2022-08-03T04:41:32.286Z,21.61
2022-08-03T04:44:22.592Z,21.58
2022-08-03T04:46:56.441Z,21.58
2022-08-03T04:49:24.706Z,21.59
2022-08-03T04:51:52.846Z,21.61
2022-08-03T04:54:20.523Z,21.62
2022-08-03T04:56:48.197Z,21.63
2022-08-03T04:59:17.721Z,21.64
2022-08-03T05:01:46.877Z,21.67
2022-08-03T05:04:14.784Z,21.68
2022-08-03T05:06:48.057Z,21.68
2022-08-03T05:09:16.178Z,21.70
2022-08-03T05:12:03.830Z,21.72
2022-08-03T05:14:31.484Z,21.75
2022-08-03T05:17:00.603Z,21.74
2022-08-03T05:19:28.304Z,21.79
2022-08-03T05:21:56.024Z,21.82
2022-08-03T05:24:23.700Z,21.84
2022-08-03T05:26:51.414Z,21.84
2022-08-03T05:29:19.081Z,21.86
2022-08-03T05:31:46.750Z,21.89
2022-08-03T05:34:17.005Z,21.95
2022-08-03T05:36:44.828Z,21.98
2022-08-03T05:39:12.500Z,22.01
2022-08-03T05:41:40.341Z,22.05
2022-08-03T05:44:08.147Z,22.06
2022-08-03T05:46:35.861Z,22.11
2022-08-03T05:49:04.613Z,22.12
2022-08-03T05:51:33.829Z,22.06
2022-08-03T05:54:01.504Z,22.15
2022-08-03T05:56:29.215Z,22.23
2022-08-03T05:58:56.983Z,22.25
2022-08-03T06:01:25.042Z,22.28
2022-08-03T06:03:53.059Z,22.26
2022-08-03T06:06:21.002Z,22.27
2022-08-03T06:08:50.097Z,22.25
2022-08-03T06:11:17.900Z,22.31
2022-08-03T06:13:45.829Z,22.32
2022-08-03T06:16:13.522Z,22.35
2022-08-03T06:18:41.593Z,22.39
2022-08-03T06:21:15.412Z,22.40
2022-08-03T06:23:52.933Z,22.43
2022-08-03T06:26:24.050Z,22.44
2022-08-03T06:28:54.217Z,22.48
2022-08-03T06:31:23.885Z,22.46
2022-08-03T06:34:34.446Z,22.60
2022-08-03T06:36:39.338Z,22.61
2022-08-03T06:39:08.234Z,22.65
2022-08-03T06:41:44.834Z,22.71
2022-08-03T06:44:13.023Z,22.73
2022-08-03T06:46:40.996Z,22.76
2022-08-03T06:49:08.924Z,22.76
2022-08-03T06:52:05.765Z,22.82
2022-08-03T06:54:25.462Z,22.84
2022-08-03T06:56:55.044Z,22.84
2022-08-03T07:00:09.249Z,22.86
2022-08-03T07:02:11.629Z,22.88
2022-08-03T07:04:39.555Z,22.87
2022-08-03T07:07:07.326Z,22.90
2022-08-03T07:09:35.013Z,22.92
2022-08-03T07:12:06.546Z,22.95
2022-08-03T07:14:34.270Z,23.00
2022-08-03T07:17:04.643Z,23.05
2022-08-03T07:19:39.579Z,23.10
2022-08-03T07:22:08.780Z,23.12
2022-08-03T07:24:36.478Z,23.15
2022-08-03T07:27:05.678Z,23.18
2022-08-03T07:29:34.672Z,23.23
2022-08-03T07:32:02.602Z,23.29
2022-08-03T07:34:30.400Z,23.33
2022-08-03T07:36:58.373Z,23.35
2022-08-03T07:39:26.157Z,23.38
2022-08-03T07:41:53.977Z,23.40
2022-08-03T07:44:23.152Z,23.47
2022-08-03T07:46:50.818Z,23.49
2022-08-03T07:49:19.751Z,23.52
2022-08-03T07:52:07.563Z,23.60
2022-08-03T07:54:35.324Z,23.64
2022-08-03T07:57:03.003Z,23.68
2022-08-03T08:00:01.399Z,23.72
2022-08-03T08:02:31.193Z,23.75
2022-08-03T08:05:03.533Z,23.80
2022-08-03T08:07:33.225Z,23.84
2022-08-03T08:10:00.924Z,23.94
2022-08-03T08:12:28.657Z,23.94
2022-08-03T08:14:56.345Z,23.98
2022-08-03T08:17:24.302Z,24.03
2022-08-03T08:19:53.592Z,24.06
2022-08-03T08:22:30.060Z,24.10
2022-08-03T08:24:58.894Z,24.13
2022-08-03T08:27:26.934Z,24.18
2022-08-03T08:29:58.864Z,24.20
2022-08-03T08:32:30.266Z,24.25
2022-08-03T08:34:59.293Z,24.30
2022-08-03T08:37:27.001Z,24.34
2022-08-03T08:39:55.021Z,24.42
2022-08-03T08:42:22.686Z,24.50
2022-08-03T08:44:50.825Z,24.57
2022-08-03T08:47:19.846Z,24.62
2022-08-03T08:50:04.041Z,24.65
2022-08-03T08:52:38.286Z,24.68
2022-08-03T08:55:07.696Z,24.75
2022-08-03T08:57:44.721Z,24.76
2022-08-03T09:00:14.583Z,24.80
2022-08-03T09:02:43.442Z,24.86
2022-08-03T09:05:12.467Z,24.91
2022-08-03T09:07:41.701Z,24.93
2022-08-03T09:10:13.330Z,24.99
2022-08-03T09:12:43.835Z,25.03
2022-08-03T09:15:19.182Z,25.09
2022-08-03T09:17:50.833Z,25.17
2022-08-03T09:20:19.389Z,25.26
2022-08-03T09:22:56.888Z,25.31
2022-08-03T09:25:32.709Z,25.36
2022-08-03T09:28:10.351Z,25.40
2022-08-03T09:30:39.725Z,25.45
2022-08-03T09:33:09.051Z,25.49
2022-08-03T09:35:58.038Z,25.56
2022-08-03T09:38:27.536Z,25.59
2022-08-03T09:40:59.921Z,25.73
2022-08-03T09:43:28.501Z,25.83
2022-08-03T09:46:04.237Z,25.89
2022-08-03T09:48:34.745Z,25.92
2022-08-03T09:51:14.122Z,25.98
2022-08-03T09:53:59.725Z,26.05
2022-08-03T09:56:40.216Z,26.08
2022-08-03T09:59:08.024Z,26.10
2022-08-03T10:01:35.951Z,26.11
2022-08-03T10:04:05.300Z,26.15
2022-08-03T10:06:33.541Z,26.17
2022-08-03T10:09:11.111Z,26.20
2022-08-03T10:11:42.028Z,26.25
2022-08-03T10:14:11.334Z,26.34
2022-08-03T10:16:41.032Z,26.41
2022-08-03T10:19:10.528Z,26.45
2022-08-03T10:21:39.759Z,26.51
2022-08-03T10:24:10.670Z,26.60
2022-08-03T10:26:49.939Z,26.73
2022-08-03T10:29:22.564Z,26.81
2022-08-03T10:31:54.697Z,26.82
2022-08-03T10:34:28.460Z,26.84
2022-08-03T10:37:00.066Z,26.83
2022-08-03T10:39:30.796Z,26.85
2022-08-03T10:41:59.955Z,26.87
2022-08-03T10:44:34.385Z,26.98
2022-08-03T10:47:02.595Z,27.10
2022-08-03T10:49:34.812Z,27.24
2022-08-03T10:52:10.431Z,27.36
2022-08-03T10:55:00.702Z,27.46
2022-08-03T10:57:49.645Z,27.43
2022-08-03T11:51:32.146Z,28.16
2022-08-03T11:55:30.564Z,28.46
2022-08-03T11:58:57.733Z,28.57
2022-08-03T12:00:47.717Z,28.67
2022-08-03T12:03:17.904Z,28.68
2022-08-03T12:05:51.964Z,28.73
2022-08-03T12:08:31.292Z,28.74
2022-08-03T12:11:02.270Z,28.74
2022-08-03T12:14:36.708Z,28.80
2022-08-03T12:16:28.604Z,28.81
2022-08-03T12:18:57.631Z,28.83
2022-08-03T12:21:25.381Z,28.93
2022-08-03T12:23:58.961Z,28.99
2022-08-03T12:26:28.635Z,29.01
2022-08-03T12:28:56.308Z,29.03
2022-08-03T12:31:24.954Z,29.11
2022-08-03T12:33:57.016Z,29.14
2022-08-03T12:36:25.063Z,29.22
2022-08-03T14:04:55.781Z,29.82
2022-08-03T14:07:23.476Z,29.98
2022-08-03T14:09:51.164Z,30.11
2022-08-03T14:12:18.986Z,30.21
2022-08-03T14:14:46.796Z,30.31
2022-08-03T14:17:16.368Z,30.35
2022-08-03T14:19:53.590Z,30.38
2022-08-03T14:22:25.954Z,30.38
2022-08-03T14:24:53.669Z,30.44
2022-08-03T14:27:21.424Z,30.44
2022-08-03T14:29:49.305Z,30.50
2022-08-03T14:32:17.038Z,30.50
2022-08-03T14:34:44.939Z,30.50
2022-08-03T14:37:12.733Z,30.52
2022-08-03T14:42:29.617Z,30.62
2022-08-03T14:45:03.467Z,30.59
2022-08-03T14:47:34.197Z,30.57
2022-08-03T14:50:30.494Z,30.58
2022-08-03T14:53:05.087Z,30.62
2022-08-03T14:55:38.412Z,30.63
2022-08-03T14:58:19.678Z,30.68
2022-08-03T15:00:49.366Z,30.74
2022-08-03T15:03:17.601Z,30.79
2022-08-03T15:05:45.572Z,30.83
2022-08-03T15:08:13.459Z,30.85
2022-08-03T15:10:43.971Z,30.85
2022-08-03T15:13:12.599Z,30.87
2022-08-03T15:15:40.333Z,30.91
2022-08-03T15:18:08.103Z,30.94
2022-08-03T15:20:44.501Z,30.99
2022-08-03T15:23:13.847Z,30.96
2022-08-03T15:26:30.091Z,30.94
2022-08-03T15:28:31.561Z,30.94
2022-08-03T15:30:59.371Z,30.94
2022-08-03T15:33:27.119Z,30.97
2022-08-03T15:35:55.173Z,30.99
2022-08-03T15:38:26.239Z,31.08
2022-08-03T15:40:55.726Z,31.11
2022-08-03T15:43:23.849Z,31.13
